createdAt,value
2017-10-03T00:00:50.884Z,0
2017-10-03T00:02:01.147Z,0
2017-10-03T00:03:11.077Z,0
2017-10-03T00:04:21.570Z,0
2017-10-03T00:05:31.817Z,0
2017-10-03T00:06:42.062Z,0
2017-10-03T00:07:52.313Z,0
2017-10-03T00:09:02.251Z,0
2017-10-03T00:10:12.751Z,0
2017-10-03T00:11:23.030Z,0
2017-10-03T00:12:33.284Z,0
2017-10-03T00:13:43.543Z,0
2017-10-03T00:14:53.802Z,0
2017-10-03T00:16:03.986Z,0
2017-10-03T00:17:14.253Z,0
2017-10-03T00:18:25.022Z,0
2017-10-03T00:19:35.269Z,0
2017-10-03T00:20:45.534Z,0
2017-10-03T00:21:55.722Z,0
2017-10-03T00:23:05.659Z,0
2017-10-03T00:24:15.595Z,0
2017-10-03T00:25:25.557Z,0
2017-10-03T00:26:35.811Z,0
2017-10-03T00:27:45.994Z,0
2017-10-03T00:28:55.627Z,0
2017-10-03T00:30:04.944Z,0
2017-10-03T00:31:15.188Z,0
2017-10-03T00:32:25.433Z,0
2017-10-03T00:33:35.941Z,0
2017-10-03T00:34:46.201Z,0
2017-10-03T00:35:55.506Z,0
2017-10-03T00:37:05.443Z,0
2017-10-03T00:38:15.701Z,0
2017-10-03T00:39:26.207Z,0
2017-10-03T00:40:36.456Z,0
2017-10-03T00:41:46.385Z,0
2017-10-03T00:42:56.639Z,0
2017-10-03T00:44:06.893Z,0
2017-10-03T00:45:17.075Z,0
2017-10-03T00:46:27.008Z,0
2017-10-03T00:47:37.252Z,0
2017-10-03T00:48:47.518Z,0
2017-10-03T00:49:57.453Z,0
2017-10-03T00:51:07.955Z,0
2017-10-03T00:52:18.204Z,0
2017-10-03T00:53:28.136Z,0
2017-10-03T00:54:38.073Z,0
2017-10-03T00:55:48.326Z,0
2017-10-03T00:56:58.510Z,0
2017-10-03T00:58:08.761Z,0
2017-10-03T00:59:18.387Z,0
2017-10-03T01:00:28.633Z,0
2017-10-03T01:01:38.874Z,0
2017-10-03T01:02:49.059Z,0
2017-10-03T01:03:58.994Z,0
2017-10-03T01:05:09.257Z,0
2017-10-03T01:06:19.522Z,0
2017-10-03T01:07:29.467Z,0
2017-10-03T01:08:39.977Z,0
2017-10-03T01:09:49.917Z,0
2017-10-03T01:10:59.855Z,0
2017-10-03T01:12:09.816Z,0
2017-10-03T01:13:19.771Z,0
2017-10-03T01:14:30.270Z,0
2017-10-03T01:15:40.824Z,0
2017-10-03T01:16:50.761Z,0
2017-10-03T01:18:01.014Z,0
2017-10-03T01:19:11.261Z,0
2017-10-03T01:20:21.772Z,0
2017-10-03T01:21:32.016Z,0
2017-10-03T01:22:42.262Z,0
2017-10-03T01:23:52.521Z,0
2017-10-03T01:25:02.465Z,0
2017-10-03T01:26:12.960Z,0
2017-10-03T01:27:22.896Z,0
2017-10-03T01:28:32.826Z,0
2017-10-03T01:29:43.075Z,0
2017-10-03T01:30:53.324Z,0
2017-10-03T01:32:03.824Z,0
2017-10-03T01:33:14.080Z,0
2017-10-03T01:34:24.011Z,0
2017-10-03T01:35:33.952Z,0
2017-10-03T01:36:43.893Z,0
2017-10-03T01:37:54.396Z,0
2017-10-03T01:39:04.666Z,0
2017-10-03T01:40:14.600Z,0
2017-10-03T01:41:24.849Z,0
2017-10-03T01:42:35.096Z,0
2017-10-03T01:43:45.631Z,0
2017-10-03T01:44:55.883Z,0
2017-10-03T01:46:06.138Z,0
2017-10-03T01:47:15.745Z,0
2017-10-03T01:48:25.685Z,0
2017-10-03T01:49:36.204Z,0
2017-10-03T01:50:46.451Z,0
2017-10-03T01:51:56.931Z,0
2017-10-03T01:53:07.174Z,0
2017-10-03T01:54:17.431Z,0
2017-10-03T01:55:27.620Z,0
2017-10-03T01:56:37.565Z,0
2017-10-03T01:57:47.809Z,0
2017-10-03T01:58:57.746Z,0
2017-10-03T02:00:07.998Z,0
2017-10-03T02:01:18.510Z,0
2017-10-03T02:02:28.757Z,0
2017-10-03T02:03:38.677Z,0
2017-10-03T02:04:48.290Z,0
2017-10-03T02:05:58.528Z,0
2017-10-03T02:07:09.035Z,0
2017-10-03T02:08:19.278Z,0
2017-10-03T02:09:29.218Z,0
2017-10-03T02:10:39.140Z,0
2017-10-03T02:11:49.077Z,0
2017-10-03T02:12:59.255Z,0
2017-10-03T02:14:09.501Z,0
2017-10-03T02:15:19.451Z,0
2017-10-03T02:16:29.698Z,0
2017-10-03T02:17:39.635Z,0
2017-10-03T02:18:50.122Z,0
2017-10-03T02:20:00.369Z,0
2017-10-03T02:21:10.623Z,0
2017-10-03T02:22:20.556Z,0
2017-10-03T02:23:30.486Z,0
2017-10-03T02:24:40.667Z,0
2017-10-03T02:25:50.920Z,0
2017-10-03T02:27:01.166Z,0
2017-10-03T02:28:11.412Z,0
2017-10-03T02:29:21.654Z,0
2017-10-03T02:30:32.169Z,0
2017-10-03T02:31:42.119Z,0
2017-10-03T02:32:52.369Z,0
2017-10-03T02:34:02.619Z,0
2017-10-03T02:35:12.873Z,0
2017-10-03T02:36:23.373Z,0
2017-10-03T02:37:33.616Z,0
2017-10-03T02:38:43.557Z,0
2017-10-03T02:39:53.808Z,0
2017-10-03T02:41:03.739Z,0
2017-10-03T02:42:14.230Z,0
2017-10-03T02:43:24.478Z,0
2017-10-03T02:44:34.729Z,0
2017-10-03T02:45:44.677Z,0
2017-10-03T02:46:54.919Z,0
2017-10-03T02:48:05.442Z,0
2017-10-03T02:49:15.070Z,0
2017-10-03T02:50:25.009Z,0
2017-10-03T02:51:35.261Z,0
2017-10-03T02:52:45.192Z,0
2017-10-03T02:53:55.426Z,0
2017-10-03T02:55:05.673Z,0
2017-10-03T02:56:15.914Z,0
2017-10-03T02:57:26.163Z,0
2017-10-03T02:58:36.412Z,0
2017-10-03T02:59:46.911Z,0
2017-10-03T03:00:56.538Z,0
2017-10-03T03:02:06.775Z,0
2017-10-03T03:03:17.026Z,0
2017-10-03T03:04:27.264Z,0
2017-10-03T03:05:37.761Z,0
2017-10-03T03:06:48.011Z,0
2017-10-03T03:07:58.262Z,0
2017-10-03T03:09:08.505Z,0
2017-10-03T03:10:18.746Z,0
2017-10-03T03:11:28.656Z,0
2017-10-03T03:12:38.581Z,0
2017-10-03T03:13:48.524Z,0
2017-10-03T03:14:58.459Z,0
2017-10-03T03:16:08.703Z,0
2017-10-03T03:17:19.196Z,0
2017-10-03T03:18:29.126Z,0
2017-10-03T03:19:39.376Z,0
2017-10-03T03:20:49.620Z,0
2017-10-03T03:21:59.239Z,0
2017-10-03T03:23:09.424Z,0
2017-10-03T03:24:19.352Z,0
2017-10-03T03:25:29.600Z,0
2017-10-03T03:26:39.219Z,0
2017-10-03T03:27:49.477Z,0
2017-10-03T03:28:59.964Z,0
2017-10-03T03:30:10.227Z,0
2017-10-03T03:31:20.501Z,0
2017-10-03T03:32:30.116Z,0
2017-10-03T03:33:40.364Z,0
2017-10-03T03:34:50.860Z,0
2017-10-03T03:36:00.791Z,0
2017-10-03T03:37:11.032Z,0
2017-10-03T03:38:21.277Z,0
2017-10-03T03:39:31.527Z,0
2017-10-03T03:40:42.024Z,0
2017-10-03T03:41:51.949Z,0
2017-10-03T03:43:01.876Z,0
2017-10-03T03:44:11.806Z,0
2017-10-03T03:45:21.740Z,0
2017-10-03T03:46:31.924Z,0
2017-10-03T03:47:42.173Z,0
2017-10-03T03:48:52.103Z,0
2017-10-03T03:50:02.352Z,0
2017-10-03T03:51:12.604Z,0
2017-10-03T03:52:23.096Z,0
2017-10-03T03:53:33.336Z,0
2017-10-03T03:54:43.580Z,0
2017-10-03T03:55:53.514Z,0
2017-10-03T03:57:03.762Z,0
2017-10-03T03:58:14.253Z,0
2017-10-03T03:59:24.195Z,0
2017-10-03T04:00:34.436Z,0
2017-10-03T04:01:44.684Z,0
2017-10-03T04:02:54.927Z,0
2017-10-03T04:04:04.798Z,0
2017-10-03T04:05:14.733Z,0
2017-10-03T04:06:24.667Z,0
2017-10-03T04:07:34.914Z,0
2017-10-03T04:08:44.840Z,0
2017-10-03T04:09:55.340Z,0
2017-10-03T04:11:05.591Z,0
2017-10-03T04:12:15.527Z,0
2017-10-03T04:13:25.453Z,0
2017-10-03T04:14:35.708Z,0
2017-10-03T04:15:45.924Z,0
2017-10-03T04:16:56.161Z,0
2017-10-03T04:18:06.407Z,0
2017-10-03T04:19:16.335Z,0
2017-10-03T04:20:26.286Z,0
2017-10-03T04:21:36.778Z,0
2017-10-03T04:22:46.714Z,0
2017-10-03T04:23:56.956Z,0
2017-10-03T04:25:07.226Z,0
2017-10-03T04:26:17.162Z,0
2017-10-03T04:27:27.656Z,0
2017-10-03T04:28:37.903Z,0
2017-10-03T04:29:47.834Z,0
2017-10-03T04:30:57.457Z,0
2017-10-03T04:32:07.386Z,0
2017-10-03T04:33:17.561Z,0
2017-10-03T04:34:27.804Z,0
2017-10-03T04:35:38.066Z,0
2017-10-03T04:36:48.313Z,0
2017-10-03T04:37:57.930Z,0
2017-10-03T04:39:08.421Z,0
2017-10-03T04:40:18.349Z,0
2017-10-03T04:41:28.287Z,0
2017-10-03T04:42:38.541Z,0
2017-10-03T04:43:48.787Z,0
2017-10-03T04:44:59.283Z,0
2017-10-03T04:46:09.212Z,0
2017-10-03T04:47:19.459Z,0
2017-10-03T04:48:29.712Z,0
2017-10-03T04:49:39.330Z,0
2017-10-03T04:50:49.831Z,0
2017-10-03T04:51:59.752Z,0
2017-10-03T04:53:10.003Z,0
2017-10-03T04:54:19.929Z,0
2017-10-03T04:55:30.183Z,0
2017-10-03T04:56:40.676Z,0
2017-10-03T04:57:50.604Z,0
2017-10-03T04:59:00.842Z,0
2017-10-03T05:00:11.094Z,0
2017-10-03T05:01:21.340Z,0
2017-10-03T05:02:31.518Z,0
2017-10-03T05:03:41.767Z,0
2017-10-03T05:04:52.016Z,0
2017-10-03T05:06:02.270Z,0
2017-10-03T05:07:12.198Z,5
2017-10-03T05:08:22.684Z,5
2017-10-03T05:09:32.302Z,5
2017-10-03T05:10:42.547Z,5
2017-10-03T05:11:52.794Z,5
2017-10-03T05:13:02.403Z,5
2017-10-03T05:14:12.897Z,5
2017-10-03T05:15:22.835Z,5
2017-10-03T05:16:33.076Z,10
2017-10-03T05:17:43.321Z,10
2017-10-03T05:18:53.578Z,10
2017-10-03T05:20:03.753Z,15
2017-10-03T05:21:13.997Z,15
2017-10-03T05:22:24.251Z,20
2017-10-03T05:23:34.507Z,20
2017-10-03T05:24:44.743Z,20
2017-10-03T05:25:54.923Z,20
2017-10-03T05:27:04.858Z,25
2017-10-03T05:28:15.112Z,25
2017-10-03T05:29:25.043Z,25
2017-10-03T05:30:34.974Z,30
2017-10-03T05:31:45.163Z,30
2017-10-03T05:32:55.103Z,35
2017-10-03T05:34:05.028Z,40
2017-10-03T05:35:15.290Z,45
2017-10-03T05:36:25.222Z,45
2017-10-03T05:37:35.710Z,50
2017-10-03T05:38:45.955Z,55
2017-10-03T05:39:56.198Z,60
2017-10-03T05:41:06.448Z,60
2017-10-03T05:42:16.695Z,60
2017-10-03T05:43:27.204Z,60
2017-10-03T05:44:37.441Z,60
2017-10-03T05:45:47.701Z,60
2017-10-03T05:46:57.003Z,65
2017-10-03T05:48:06.311Z,65
2017-10-03T05:49:16.493Z,70
2017-10-03T05:50:26.733Z,75
2017-10-03T05:51:36.355Z,80
2017-10-03T05:52:46.617Z,85
2017-10-03T05:53:56.229Z,85
2017-10-03T05:55:06.409Z,85
2017-10-03T05:56:15.712Z,85
2017-10-03T05:57:25.634Z,85
2017-10-03T05:58:35.887Z,80
2017-10-03T05:59:46.135Z,80
2017-10-03T06:00:56.018Z,85
2017-10-03T06:02:05.957Z,90
2017-10-03T06:03:16.199Z,100
2017-10-03T06:04:26.131Z,105
2017-10-03T06:05:36.394Z,110
2017-10-03T06:06:46.892Z,110
2017-10-03T06:07:57.126Z,115
2017-10-03T06:09:07.370Z,115
2017-10-03T06:10:17.631Z,120
2017-10-03T06:11:27.882Z,120
2017-10-03T06:12:38.370Z,120
2017-10-03T06:13:48.306Z,125
2017-10-03T06:14:58.557Z,130
2017-10-03T06:16:08.798Z,130
2017-10-03T06:17:18.418Z,125
2017-10-03T06:18:28.596Z,125
2017-10-03T06:19:38.207Z,120
2017-10-03T06:20:48.458Z,125
2017-10-03T06:21:58.731Z,130
2017-10-03T06:23:08.975Z,135
2017-10-03T06:24:19.477Z,135
2017-10-03T06:25:29.725Z,135
2017-10-03T06:26:39.963Z,135
2017-10-03T06:27:49.277Z,140
2017-10-03T06:28:59.517Z,150
2017-10-03T06:30:09.708Z,160
2017-10-03T06:31:19.654Z,170
2017-10-03T06:32:29.901Z,175
2017-10-03T06:33:40.147Z,185
2017-10-03T06:34:50.393Z,185
2017-10-03T06:36:00.926Z,190
2017-10-03T06:37:11.178Z,195
2017-10-03T06:38:21.113Z,195
2017-10-03T06:39:31.368Z,200
2017-10-03T06:40:41.614Z,205
2017-10-03T06:41:52.126Z,205
2017-10-03T06:43:02.381Z,200
2017-10-03T06:44:12.638Z,200
2017-10-03T06:45:22.572Z,195
2017-10-03T06:46:32.821Z,190
2017-10-03T06:47:43.008Z,185
2017-10-03T06:48:52.952Z,185
2017-10-03T06:50:03.212Z,185
2017-10-03T06:51:13.457Z,190
2017-10-03T06:52:23.396Z,195
2017-10-03T06:53:33.587Z,200
2017-10-03T06:54:43.854Z,200
2017-10-03T06:55:53.482Z,205
2017-10-03T06:57:03.413Z,210
2017-10-03T06:58:13.358Z,210
2017-10-03T06:59:23.858Z,210
2017-10-03T07:00:33.797Z,210
2017-10-03T07:01:44.054Z,215
2017-10-03T07:02:54.307Z,215
2017-10-03T07:04:04.560Z,215
2017-10-03T07:05:15.095Z,225
2017-10-03T07:06:25.345Z,250
2017-10-03T07:07:34.959Z,275
2017-10-03T07:08:45.206Z,295
2017-10-03T07:09:55.448Z,300
2017-10-03T07:11:05.955Z,305
2017-10-03T07:12:16.210Z,320
2017-10-03T07:13:26.148Z,335
2017-10-03T07:14:36.077Z,355
2017-10-03T07:15:46.344Z,385
2017-10-03T07:16:56.532Z,390
2017-10-03T07:18:06.781Z,365
2017-10-03T07:19:17.059Z,385
2017-10-03T07:20:27.314Z,390
2017-10-03T07:21:37.558Z,395
2017-10-03T07:22:47.741Z,395
2017-10-03T07:23:57.994Z,395
2017-10-03T07:25:08.243Z,400
2017-10-03T07:26:18.192Z,400
2017-10-03T07:27:28.455Z,390
2017-10-03T07:28:38.636Z,395
2017-10-03T07:29:48.893Z,385
2017-10-03T07:30:58.834Z,395
2017-10-03T07:32:09.078Z,395
2017-10-03T07:33:19.030Z,390
2017-10-03T07:34:28.902Z,390
2017-10-03T07:35:38.542Z,370
2017-10-03T07:36:48.788Z,415
2017-10-03T07:37:59.048Z,375
2017-10-03T07:39:08.997Z,370
2017-10-03T07:40:19.497Z,315
2017-10-03T07:41:29.756Z,265
2017-10-03T07:42:40.034Z,255
2017-10-03T07:43:50.307Z,275
2017-10-03T07:45:00.249Z,440
2017-10-03T07:46:10.446Z,345
2017-10-03T07:47:20.383Z,255
2017-10-03T07:48:30.316Z,280
2017-10-03T07:49:40.573Z,405
2017-10-03T07:50:50.827Z,360
2017-10-03T07:52:01.324Z,370
2017-10-03T07:53:11.259Z,390
2017-10-03T07:54:21.211Z,280
2017-10-03T07:55:31.477Z,365
2017-10-03T07:56:41.731Z,495
2017-10-03T07:57:52.241Z,575
2017-10-03T07:59:02.507Z,485
2017-10-03T08:00:12.764Z,510
2017-10-03T08:01:23.031Z,435
2017-10-03T08:02:33.278Z,335
2017-10-03T08:03:43.462Z,325
2017-10-03T08:04:53.717Z,285
2017-10-03T08:06:03.968Z,285
2017-10-03T08:07:14.237Z,265
2017-10-03T08:08:24.477Z,305
2017-10-03T08:09:34.813Z,270
2017-10-03T08:10:45.073Z,330
2017-10-03T08:11:55.016Z,500
2017-10-03T08:13:04.961Z,335
2017-10-03T08:14:15.220Z,325
2017-10-03T08:15:25.409Z,375
2017-10-03T08:16:35.704Z,490
2017-10-03T08:17:45.972Z,270
2017-10-03T08:18:56.269Z,235
2017-10-03T08:20:06.244Z,325
2017-10-03T08:21:16.745Z,495
2017-10-03T08:22:26.995Z,445
2017-10-03T08:23:37.256Z,310
2017-10-03T08:24:47.514Z,350
2017-10-03T08:25:57.779Z,385
2017-10-03T08:27:08.344Z,450
2017-10-03T08:28:18.303Z,375
2017-10-03T08:29:28.566Z,450
2017-10-03T08:30:38.831Z,420
2017-10-03T08:31:48.786Z,440
2017-10-03T08:32:59.290Z,375
2017-10-03T08:34:09.237Z,335
2017-10-03T08:35:19.175Z,365
2017-10-03T08:36:29.427Z,585
2017-10-03T08:37:39.362Z,735
2017-10-03T08:38:49.869Z,1135
2017-10-03T08:40:00.120Z,730
2017-10-03T08:41:10.369Z,760
2017-10-03T08:42:20.618Z,820
2017-10-03T08:43:30.884Z,795
2017-10-03T08:44:41.075Z,830
2017-10-03T08:45:51.012Z,940
2017-10-03T08:47:01.262Z,1150
2017-10-03T08:48:10.891Z,570
2017-10-03T08:49:21.138Z,510
2017-10-03T08:50:31.021Z,730
2017-10-03T08:51:40.640Z,900
2017-10-03T08:52:50.913Z,485
2017-10-03T08:54:01.176Z,635
2017-10-03T08:55:11.111Z,580
2017-10-03T08:56:21.624Z,1245
2017-10-03T08:57:31.264Z,660
2017-10-03T08:58:41.203Z,780
2017-10-03T08:59:51.137Z,1075
2017-10-03T09:01:01.392Z,1130
2017-10-03T09:02:11.910Z,1735
2017-10-03T09:03:21.884Z,1115
2017-10-03T09:04:31.853Z,755
2017-10-03T09:05:42.121Z,395
2017-10-03T09:06:52.061Z,530
2017-10-03T09:08:02.247Z,610
2017-10-03T09:09:12.541Z,1010
2017-10-03T09:10:22.488Z,1480
2017-10-03T09:11:32.757Z,1125
2017-10-03T09:12:43.007Z,540
2017-10-03T09:13:53.224Z,625
2017-10-03T09:15:03.167Z,1150
2017-10-03T09:16:13.122Z,805
2017-10-03T09:17:23.077Z,800
2017-10-03T09:18:33.326Z,605
2017-10-03T09:19:43.527Z,725
2017-10-03T09:20:53.484Z,655
2017-10-03T09:22:03.756Z,550
2017-10-03T09:23:14.009Z,575
2017-10-03T09:24:24.268Z,520
2017-10-03T09:25:34.815Z,640
2017-10-03T09:26:44.433Z,610
2017-10-03T09:27:54.366Z,585
2017-10-03T09:29:04.615Z,635
2017-10-03T09:30:14.569Z,530
2017-10-03T09:31:25.073Z,475
2017-10-03T09:32:35.047Z,475
2017-10-03T09:33:45.315Z,535
2017-10-03T09:34:55.572Z,595
2017-10-03T09:36:05.827Z,570
2017-10-03T09:37:16.328Z,505
2017-10-03T09:38:26.280Z,460
2017-10-03T09:39:36.240Z,435
2017-10-03T09:40:46.495Z,440
2017-10-03T09:41:56.748Z,480
2017-10-03T09:43:07.254Z,485
2017-10-03T09:44:17.218Z,680
2017-10-03T09:45:27.169Z,1030
2017-10-03T09:46:37.430Z,1185
2017-10-03T09:47:47.380Z,785
2017-10-03T09:48:57.880Z,670
2017-10-03T09:50:08.133Z,855
2017-10-03T09:51:18.387Z,605
2017-10-03T09:52:28.638Z,625
2017-10-03T09:53:38.902Z,730
2017-10-03T09:54:49.087Z,780
2017-10-03T09:55:59.023Z,805
2017-10-03T09:57:09.293Z,1205
2017-10-03T09:58:18.920Z,1190
2017-10-03T09:59:29.178Z,1570
2017-10-03T10:00:39.385Z,840
2017-10-03T10:01:49.656Z,755
2017-10-03T10:02:59.915Z,760
2017-10-03T10:04:10.184Z,850
2017-10-03T10:05:20.428Z,1200
2017-10-03T10:06:30.930Z,985
2017-10-03T10:07:41.196Z,850
2017-10-03T10:08:51.155Z,1470
2017-10-03T10:10:00.785Z,1025
2017-10-03T10:11:11.042Z,2495
2017-10-03T10:12:21.547Z,2120
2017-10-03T10:13:31.483Z,770
2017-10-03T10:14:41.742Z,915
2017-10-03T10:15:51.673Z,1265
2017-10-03T10:17:01.936Z,1025
2017-10-03T10:18:11.815Z,700
2017-10-03T10:19:22.080Z,625
2017-10-03T10:20:31.398Z,560
2017-10-03T10:21:41.658Z,635
2017-10-03T10:22:51.932Z,755
2017-10-03T10:24:02.171Z,900
2017-10-03T10:25:12.123Z,970
2017-10-03T10:26:22.380Z,1035
2017-10-03T10:27:32.669Z,1295
2017-10-03T10:28:42.618Z,945
2017-10-03T10:29:53.126Z,680
2017-10-03T10:31:03.395Z,435
2017-10-03T10:32:13.642Z,375
2017-10-03T10:33:23.901Z,365
2017-10-03T10:34:34.184Z,370
2017-10-03T10:35:44.697Z,430
2017-10-03T10:36:54.950Z,460
2017-10-03T10:38:05.217Z,465
2017-10-03T10:39:15.482Z,445
2017-10-03T10:40:25.739Z,440
2017-10-03T10:41:36.244Z,505
2017-10-03T10:42:46.195Z,645
2017-10-03T10:43:56.444Z,645
2017-10-03T10:45:06.698Z,705
2017-10-03T10:46:16.638Z,900
2017-10-03T10:47:27.139Z,2670
2017-10-03T10:48:37.394Z,2730
2017-10-03T10:49:47.652Z,2625
2017-10-03T10:50:57.936Z,2770
2017-10-03T10:52:08.190Z,1315
2017-10-03T10:53:18.708Z,2590
2017-10-03T10:54:28.341Z,2620
2017-10-03T10:55:38.284Z,2760
2017-10-03T10:56:48.554Z,2830
2017-10-03T10:57:58.507Z,1685
2017-10-03T10:59:08.702Z,2550
2017-10-03T11:00:18.646Z,1250
2017-10-03T11:01:28.902Z,855
2017-10-03T11:02:38.547Z,610
2017-10-03T11:03:49.422Z,595
2017-10-03T11:04:59.930Z,655
2017-10-03T11:06:09.883Z,765
2017-10-03T11:07:19.521Z,925
2017-10-03T11:08:29.459Z,1865
2017-10-03T11:09:39.729Z,1285
2017-10-03T11:10:50.239Z,770
2017-10-03T11:12:00.503Z,730
2017-10-03T11:13:10.772Z,730
2017-10-03T11:14:21.036Z,780
2017-10-03T11:15:30.981Z,855
2017-10-03T11:16:41.514Z,2245
2017-10-03T11:17:51.792Z,770
2017-10-03T11:19:02.050Z,790
2017-10-03T11:20:11.669Z,545
2017-10-03T11:21:21.297Z,445
2017-10-03T11:22:31.483Z,395
2017-10-03T11:23:41.757Z,365
2017-10-03T11:24:51.394Z,340
2017-10-03T11:26:01.653Z,300
2017-10-03T11:27:11.599Z,310
2017-10-03T11:28:21.800Z,320
2017-10-03T11:29:31.427Z,330
2017-10-03T11:30:41.699Z,365
2017-10-03T11:31:51.951Z,720
2017-10-03T11:33:01.894Z,2625
2017-10-03T11:34:12.417Z,450
2017-10-03T11:35:22.776Z,2285
2017-10-03T11:36:32.743Z,2865
2017-10-03T11:37:42.999Z,2925
2017-10-03T11:38:53.274Z,2990
2017-10-03T11:40:03.487Z,3010
2017-10-03T11:41:13.743Z,3220
2017-10-03T11:42:24.002Z,3285
2017-10-03T11:43:33.960Z,3290
2017-10-03T11:44:44.216Z,3330
2017-10-03T11:45:54.415Z,3300
2017-10-03T11:47:04.676Z,3310
2017-10-03T11:48:14.950Z,2510
2017-10-03T11:49:25.202Z,3010
2017-10-03T11:50:35.483Z,1670
2017-10-03T11:51:45.998Z,1665
2017-10-03T11:52:56.257Z,1135
2017-10-03T11:54:06.519Z,1135
2017-10-03T11:55:16.782Z,1760
2017-10-03T11:56:27.051Z,1150
2017-10-03T11:57:37.591Z,1030
2017-10-03T11:58:47.851Z,1015
2017-10-03T11:59:58.113Z,1755
2017-10-03T12:01:08.051Z,3150
2017-10-03T12:02:18.025Z,3255
2017-10-03T12:03:28.221Z,1405
2017-10-03T12:04:38.213Z,1495
2017-10-03T12:05:48.466Z,3270
2017-10-03T12:06:58.732Z,3140
2017-10-03T12:08:08.671Z,1810
2017-10-03T12:09:19.184Z,3265
2017-10-03T12:10:29.147Z,3345
2017-10-03T12:11:39.404Z,970
2017-10-03T12:12:49.672Z,3930
2017-10-03T12:13:59.624Z,2765
2017-10-03T12:15:10.161Z,740
2017-10-03T12:16:20.418Z,735
2017-10-03T12:17:30.692Z,640
2017-10-03T12:18:40.977Z,775
2017-10-03T12:19:51.483Z,970
2017-10-03T12:21:01.710Z,3320
2017-10-03T12:22:11.660Z,3245
2017-10-03T12:23:21.956Z,2690
2017-10-03T12:24:32.211Z,3370
2017-10-03T12:25:42.164Z,825
2017-10-03T12:26:52.673Z,890
2017-10-03T12:28:02.629Z,750
2017-10-03T12:29:13.148Z,910
2017-10-03T12:30:23.409Z,1900
2017-10-03T12:31:33.365Z,960
2017-10-03T12:32:43.248Z,1565
2017-10-03T12:33:53.503Z,765
2017-10-03T12:35:03.443Z,745
2017-10-03T12:36:13.398Z,820
2017-10-03T12:37:23.658Z,3160
2017-10-03T12:38:33.862Z,1915
2017-10-03T12:39:44.118Z,3170
2017-10-03T12:40:54.057Z,835
2017-10-03T12:42:04.018Z,1135
2017-10-03T12:43:14.280Z,1920
2017-10-03T12:44:24.788Z,1605
2017-10-03T12:45:34.411Z,3270
2017-10-03T12:46:44.369Z,3275
2017-10-03T12:47:54.624Z,3125
2017-10-03T12:49:04.876Z,3110
2017-10-03T12:50:15.095Z,2950
2017-10-03T12:51:25.359Z,3255
2017-10-03T12:52:35.645Z,3140
2017-10-03T12:53:45.913Z,2790
2017-10-03T12:54:56.167Z,1230
2017-10-03T12:56:06.044Z,3205
2017-10-03T12:57:16.021Z,2715
2017-10-03T12:58:26.302Z,1010
2017-10-03T12:59:36.244Z,2495
2017-10-03T13:00:46.499Z,1195
2017-10-03T13:01:56.401Z,900
2017-10-03T13:03:06.365Z,840
2017-10-03T13:04:16.633Z,920
2017-10-03T13:05:26.882Z,3295
2017-10-03T13:06:37.151Z,3270
2017-10-03T13:07:47.651Z,3240
2017-10-03T13:08:57.594Z,2595
2017-10-03T13:10:07.545Z,3155
2017-10-03T13:11:17.805Z,720
2017-10-03T13:12:28.081Z,400
2017-10-03T13:13:38.601Z,295
2017-10-03T13:14:48.859Z,265
2017-10-03T13:15:58.810Z,250
2017-10-03T13:17:09.058Z,255
2017-10-03T13:18:19.002Z,300
2017-10-03T13:19:29.516Z,410
2017-10-03T13:20:39.899Z,470
2017-10-03T13:21:50.157Z,525
2017-10-03T13:23:00.116Z,500
2017-10-03T13:24:09.766Z,2785
2017-10-03T13:25:19.975Z,2810
2017-10-03T13:26:29.946Z,2920
2017-10-03T13:27:40.209Z,885
2017-10-03T13:28:50.160Z,1720
2017-10-03T13:30:00.108Z,485
2017-10-03T13:31:10.632Z,620
2017-10-03T13:32:20.579Z,1075
2017-10-03T13:33:30.520Z,660
2017-10-03T13:34:40.455Z,2820
2017-10-03T13:35:50.721Z,2900
2017-10-03T13:37:01.227Z,2850
2017-10-03T13:38:11.496Z,2720
2017-10-03T13:39:21.745Z,2670
2017-10-03T13:40:32.013Z,2715
2017-10-03T13:41:41.970Z,2680
2017-10-03T13:42:52.478Z,2650
2017-10-03T13:44:02.767Z,2650
2017-10-03T13:45:13.037Z,2675
2017-10-03T13:46:22.978Z,2675
2017-10-03T13:47:33.247Z,2575
2017-10-03T13:48:43.759Z,2620
2017-10-03T13:49:54.042Z,2760
2017-10-03T13:51:03.978Z,2820
2017-10-03T13:52:13.928Z,2760
2017-10-03T13:53:24.183Z,2130
2017-10-03T13:54:37.789Z,1870
2017-10-03T13:55:48.063Z,2510
2017-10-03T13:56:58.017Z,2720
2017-10-03T13:58:08.283Z,2815
2017-10-03T13:59:18.545Z,2820
2017-10-03T14:00:28.813Z,2770
2017-10-03T14:01:39.097Z,2665
2017-10-03T14:02:48.734Z,2430
2017-10-03T14:03:58.984Z,2400
2017-10-03T14:05:09.255Z,2615
2017-10-03T14:06:19.535Z,2630
2017-10-03T14:07:29.503Z,2580
2017-10-03T14:08:39.792Z,2120
2017-10-03T14:09:50.050Z,2010
2017-10-03T14:10:59.674Z,2155
2017-10-03T14:12:09.961Z,2330
2017-10-03T14:13:20.208Z,860
2017-10-03T14:14:30.163Z,745
2017-10-03T14:15:40.452Z,640
2017-10-03T14:16:50.718Z,640
2017-10-03T14:18:00.981Z,765
2017-10-03T14:19:10.616Z,2100
2017-10-03T14:20:20.902Z,2055
2017-10-03T14:21:31.198Z,825
2017-10-03T14:22:41.145Z,2375
2017-10-03T14:23:51.098Z,2570
2017-10-03T14:25:01.041Z,2560
2017-10-03T14:26:11.304Z,2410
2017-10-03T14:27:21.559Z,2240
2017-10-03T14:28:31.526Z,2250
2017-10-03T14:29:41.466Z,2345
2017-10-03T14:30:51.115Z,2355
2017-10-03T14:32:01.083Z,2355
2017-10-03T14:33:11.345Z,2295
2017-10-03T14:34:21.631Z,2120
2017-10-03T14:35:31.576Z,1780
2017-10-03T14:36:41.839Z,1780
2017-10-03T14:37:51.789Z,1910
2017-10-03T14:39:02.067Z,1470
2017-10-03T14:40:12.348Z,950
2017-10-03T14:41:22.596Z,1280
2017-10-03T14:42:32.874Z,1410
2017-10-03T14:43:42.827Z,1410
2017-10-03T14:44:53.086Z,635
2017-10-03T14:46:03.336Z,1605
2017-10-03T14:47:13.603Z,1600
2017-10-03T14:48:23.889Z,815
2017-10-03T14:49:34.154Z,675
2017-10-03T14:50:43.785Z,430
2017-10-03T14:51:53.725Z,790
2017-10-03T14:53:03.697Z,385
2017-10-03T14:54:13.644Z,480
2017-10-03T14:55:23.908Z,425
2017-10-03T14:56:34.182Z,425
2017-10-03T14:57:44.466Z,400
2017-10-03T14:58:54.735Z,350
2017-10-03T15:00:04.678Z,300
2017-10-03T15:01:14.647Z,265
2017-10-03T15:02:24.913Z,255
2017-10-03T15:03:35.179Z,260
2017-10-03T15:04:45.451Z,255
2017-10-03T15:05:55.715Z,260
2017-10-03T15:07:05.974Z,280
2017-10-03T15:08:15.929Z,370
2017-10-03T15:09:25.560Z,1360
2017-10-03T15:10:35.813Z,1475
2017-10-03T15:11:46.091Z,1595
2017-10-03T15:12:56.048Z,1570
2017-10-03T15:14:06.316Z,1555
2017-10-03T15:15:16.578Z,1565
2017-10-03T15:16:26.866Z,1535
2017-10-03T15:17:36.797Z,1490
2017-10-03T15:18:46.754Z,1485
2017-10-03T15:19:56.690Z,1420
2017-10-03T15:21:06.946Z,1375
2017-10-03T15:22:17.209Z,1370
2017-10-03T15:23:27.155Z,1345
2017-10-03T15:24:37.430Z,1285
2017-10-03T15:25:47.052Z,1210
2017-10-03T15:26:57.314Z,1220
2017-10-03T15:28:07.558Z,1225
2017-10-03T15:29:17.516Z,1185
2017-10-03T15:30:27.770Z,1135
2017-10-03T15:31:38.040Z,1150
2017-10-03T15:32:48.302Z,1090
2017-10-03T15:33:58.573Z,1040
2017-10-03T15:35:08.824Z,1015
2017-10-03T15:36:19.079Z,980
2017-10-03T15:37:29.373Z,965
2017-10-03T15:38:39.318Z,975
2017-10-03T15:39:49.595Z,950
2017-10-03T15:40:59.220Z,930
2017-10-03T15:42:09.478Z,875
2017-10-03T15:43:19.436Z,830
2017-10-03T15:44:29.724Z,420
2017-10-03T15:45:40.006Z,720
2017-10-03T15:46:50.259Z,710
2017-10-03T15:48:00.536Z,690
2017-10-03T15:49:10.809Z,515
2017-10-03T15:50:20.787Z,230
2017-10-03T15:51:30.420Z,195
2017-10-03T15:52:40.385Z,190
2017-10-03T15:53:50.652Z,180
2017-10-03T15:55:00.951Z,170
2017-10-03T15:56:10.907Z,160
2017-10-03T15:57:21.179Z,155
2017-10-03T15:58:31.437Z,145
2017-10-03T15:59:41.691Z,130
2017-10-03T16:00:51.961Z,120
2017-10-03T16:02:02.224Z,100
2017-10-03T16:03:12.487Z,85
2017-10-03T16:04:22.440Z,65
2017-10-03T16:05:32.710Z,50
2017-10-03T16:06:42.959Z,35
2017-10-03T16:07:53.248Z,20
2017-10-03T16:09:03.519Z,15
2017-10-03T16:10:13.773Z,15
2017-10-03T16:11:23.723Z,15
2017-10-03T16:12:33.998Z,15
2017-10-03T16:13:44.252Z,15
2017-10-03T16:14:54.185Z,15
2017-10-03T16:16:04.459Z,15
2017-10-03T16:17:14.400Z,15
2017-10-03T16:18:24.343Z,10
2017-10-03T16:19:34.616Z,10
2017-10-03T16:20:44.562Z,10
2017-10-03T16:21:54.872Z,10
2017-10-03T16:23:05.146Z,15